CheckWX is a tool to help pilots better visualize weather data.  It is not intended as a substitute for an official pre-flight weather briefing.

20:54:30 UTC

MBPV TAF
Providenciales International Airport
Providenciales, Turks and Caicos Islands
MBPV 221700Z 2218/2318 VRB02KT 9999 SCT018 SCT030 PROB30 TEMPO 2306/2312 16010KT 7000 SHRA SCT016CB SCT045 BKN080

Mar-22@
18:00 UTC

Mar-22 @ 18:00 UTC

Mar-23@
18:00 UTC

Mar-23 @ 18:00 UTC

MBPV 221700Z 2218/2318 VRB02KT 9999 SCT018 SCT030
Wind
  • Variable at 2 KTS
Cloud Levels
  • Scattered at 1,800' AGL
  • Scattered at 3,000' AGL

Mar-23@
06:00 UTC

Mar-23 @ 06:00 UTC

Mar-23@
12:00 UTC

Mar-23 @ 12:00 UTC

PROB30 TEMPO 2306/2312 16010KT 7000 SHRA SCT016CB SCT045 BKN080

Temporary - 30% Likelihood

Temporary - 30% Likelihood during this time.

Wind
  • 160° at 10 KTS
Conditions
Rain
Cloud Levels
  • Scattered at 1,600' AGL
  • Scattered at 4,500' AGL
  • Broken at 8,000' AGL